This is the latest recevied weather packets stored in our database for station/object DL9LA-13. If no packets are shown the sender has not sent any weather packets the latest 10 day(s).
| Time | Temp. | Humidity | Pressure | Rain* | Wind** | Luminosity | Snow |
|---|---|---|---|---|---|---|---|
| 1777869877 | 17.22° C | 50% | 970 hPa | - | - | - | - |
| 1777866255 | 17.22° C | 48% | 970 hPa | - | - | - | - |
| 1777865651 | 17.22° C | 47% | 970 hPa | - | - | - | - |
| 1777865047 | 17.78° C | 47% | 970 hPa | - | - | - | - |
| 1777863237 | 17.78° C | 47% | 970 hPa | - | - | - | - |
| 1777862633 | 17.78° C | 48% | 970 hPa | - | - | - | - |
| 1777861426 | 18.33° C | 46% | 970 hPa | - | - | - | - |
| 1777860218 | 18.33° C | 44% | 970 hPa | - | - | - | - |
| 1777857804 | 18.33° C | 47% | 970 hPa | - | - | - | - |
| 1777856596 | 18.33° C | 47% | 969 hPa | - | - | - | - |
| 1777855993 | 18.89° C | 47% | 969 hPa | - | - | - | - |
| 1777854786 | 18.33° C | 48% | 969 hPa | - | - | - | - |
| 1777854182 | 18.33° C | 47% | 969 hPa | - | - | - | - |
| 1777851767 | 18.89° C | 47% | 969 hPa | - | - | - | - |
| 1777851164 | 18.89° C | 47% | 968 hPa | - | - | - | - |
| 1777850560 | 18.33° C | 47% | 968 hPa | - | - | - | - |
| 1777849956 | 18.33° C | 48% | 968 hPa | - | - | - | - |
| 1777848146 | 19.44° C | 45% | 968 hPa | - | - | - | - |
| 1777847542 | 20° C | 43% | 968 hPa | - | - | - | - |
| 1777845731 | 20° C | 42% | 968 hPa | - | - | - | - |
| 1777845127 | 20° C | 42% | 968 hPa | - | - | - | - |
| 1777842713 | 20.56° C | 40% | 967 hPa | - | - | - | - |
| 1777841505 | 20.56° C | 39% | 967 hPa | - | - | - | - |
| 1777840298 | 20.56° C | 40% | 967 hPa | - | - | - | - |
| 1777839695 | 21.11° C | 38% | 967 hPa | - | - | - | - |
* Rain since midnight (hover to see other rain measurements)
** Current wind speed in m/s (hover to see current wind gust speed)